Time;durP1;ratioP1;P1;durP2;ratioP2;P2;SDS_P1;SDS_P2;PMS_P1;PMS_P2;Temp;Humidity;BMP_temperature;BMP_pressure;BME280_temperature;BME280_humidity;BME280_pressure;Samples;Min_cycle;Max_cycle;Signal;HPM_P1;HPM_P2
2022/03/03 00:02:07;;;;;;;20.03;17.43;;;;;;;5.66;65.49;96806.25;5112625;28;20224;-51
2022/03/03 00:04:33;;;;;;;21.97;18.53;;;;;;;5.70;64.54;96801.63;5112928;28;20201;-53
2022/03/03 00:07:00;;;;;;;20.40;17.67;;;;;;;5.70;64.55;96805.06;5113255;28;20209;-51
2022/03/03 00:09:26;;;;;;;20.83;17.70;;;;;;;5.68;65.50;96799.09;5111923;28;20220;-51
2022/03/03 00:11:53;;;;;;;20.53;17.30;;;;;;;5.69;64.93;96806.00;5112872;28;20221;-52
2022/03/03 00:14:21;;;;;;;20.50;17.23;;;;;;;5.70;64.65;96799.84;5113298;28;20212;-52
2022/03/03 00:16:47;;;;;;;21.00;17.40;;;;;;;5.67;63.51;96797.41;5113166;28;20205;-51
2022/03/03 00:19:14;;;;;;;19.13;17.07;;;;;;;5.69;63.43;96795.53;5112788;28;20209;-53
2022/03/03 00:21:41;;;;;;;20.67;17.27;;;;;;;5.71;62.47;96793.63;5112329;28;20193;-51
2022/03/03 00:24:07;;;;;;;21.60;18.13;;;;;;;5.62;64.28;96788.19;5113200;28;20229;-53
2022/03/03 00:26:34;;;;;;;23.60;17.53;;;;;;;5.56;64.29;96804.38;5113226;28;20209;-53
2022/03/03 00:29:00;;;;;;;19.87;16.63;;;;;;;5.48;64.59;96795.25;5113274;28;20239;-51
2022/03/03 00:31:28;;;;;;;19.50;17.13;;;;;;;5.47;64.14;96790.13;5112539;28;20226;-53
2022/03/03 00:33:55;;;;;;;23.47;17.77;;;;;;;5.51;64.16;96791.56;5129564;28;20204;-51
2022/03/03 00:36:21;;;;;;;21.03;16.77;;;;;;;5.47;63.29;96797.97;5137667;28;20193;-52
2022/03/03 00:38:48;;;;;;;19.83;17.37;;;;;;;5.39;63.28;96787.19;5133968;28;20197;-52
2022/03/03 00:41:14;;;;;;;19.50;17.23;;;;;;;5.30;63.38;96790.47;5114979;28;20208;-53
2022/03/03 00:43:41;;;;;;;18.60;16.53;;;;;;;5.25;63.82;96792.56;5112526;28;20834;-53
2022/03/03 00:46:08;;;;;;;19.53;17.43;;;;;;;5.21;64.42;96793.75;5115252;28;20692;-52
2022/03/03 00:48:36;;;;;;;23.77;17.67;;;;;;;5.13;65.88;96790.81;5116914;28;20197;-51
2022/03/03 00:51:06;;;;;;;20.07;17.63;;;;;;;5.18;65.41;96793.94;5115685;28;20216;-52
2022/03/03 00:53:33;;;;;;;20.60;17.17;;;;;;;5.13;65.54;96790.81;5116493;28;20205;-52
2022/03/03 00:56:00;;;;;;;20.60;17.53;;;;;;;5.06;66.35;96790.41;5115847;28;20200;-53
2022/03/03 00:58:26;;;;;;;19.80;17.67;;;;;;;4.99;67.07;96795.19;5115864;28;20789;-52
2022/03/03 01:00:53;;;;;;;21.20;16.63;;;;;;;4.95;67.62;96792.91;5116822;28;20946;-54
2022/03/03 01:03:19;;;;;;;19.63;17.27;;;;;;;4.88;67.83;96792.50;5115780;28;20551;-53
2022/03/03 01:05:47;;;;;;;19.20;17.20;;;;;;;4.98;66.77;96790.91;5115049;27;20625;-53
2022/03/03 01:08:14;;;;;;;21.40;17.23;;;;;;;5.00;65.71;96785.56;5115761;28;20201;-53
2022/03/03 01:10:41;;;;;;;19.23;16.27;;;;;;;4.94;66.32;96788.59;5113852;28;20209;-52
2022/03/03 01:13:07;;;;;;;19.37;17.00;;;;;;;4.94;65.88;96786.81;5113939;28;20233;-52
2022/03/03 01:15:33;;;;;;;19.30;17.20;;;;;;;4.96;65.90;96784.09;5116010;28;20189;-52
2022/03/03 01:18:00;;;;;;;18.63;16.67;;;;;;;4.97;65.82;96785.75;5114312;28;20213;-52
2022/03/03 01:20:27;;;;;;;20.70;17.70;;;;;;;4.93;66.61;96782.53;5113633;28;20200;-53
2022/03/03 01:22:55;;;;;;;21.27;17.23;;;;;;;4.88;65.81;96789.88;5115557;28;20216;-53
2022/03/03 01:25:22;;;;;;;19.53;17.43;;;;;;;4.83;66.40;96786.72;5115388;28;20216;-50
2022/03/03 01:27:48;;;;;;;20.23;17.77;;;;;;;4.83;67.62;96784.09;5111910;28;20650;-51
2022/03/03 01:30:14;;;;;;;21.80;18.23;;;;;;;4.89;66.78;96778.44;5111882;28;20212;-52
2022/03/03 01:32:41;;;;;;;21.07;17.50;;;;;;;4.85;67.85;96769.09;5111729;28;20217;-52
2022/03/03 01:35:08;;;;;;;20.73;17.50;;;;;;;4.90;67.16;96761.78;5111846;28;20220;-51
2022/03/03 01:37:35;;;;;;;19.17;16.97;;;;;;;4.91;66.87;96770.47;5112075;28;20201;-52
2022/03/03 01:40:03;;;;;;;19.67;17.57;;;;;;;4.83;68.39;96762.28;5111741;28;20201;-52
2022/03/03 01:42:30;;;;;;;21.83;17.00;;;;;;;4.83;67.54;96760.50;5110733;28;20224;-52
2022/03/03 01:44:56;;;;;;;19.57;16.73;;;;;;;4.83;67.26;96762.28;5111837;28;20205;-52
2022/03/03 01:47:24;;;;;;;21.90;18.00;;;;;;;4.77;67.48;96760.94;5111553;28;20197;-50
2022/03/03 01:49:52;;;;;;;20.00;17.90;;;;;;;4.70;68.19;96756.22;5111207;28;20204;-54
2022/03/03 01:52:19;;;;;;;18.13;16.23;;;;;;;4.72;68.42;96759.56;5111693;28;20228;-53
2022/03/03 01:54:45;;;;;;;22.00;18.20;;;;;;;4.68;67.60;96758.94;5111006;28;20860;-54
2022/03/03 01:57:17;;;;;;;19.93;17.60;;;;;;;4.64;67.61;96754.03;5111349;28;20548;-51
2022/03/03 01:59:44;;;;;;;21.80;17.20;;;;;;;4.66;67.41;96754.75;5111778;28;20197;-52
2022/03/03 02:02:11;;;;;;;22.20;16.83;;;;;;;4.62;67.82;96748.88;5111544;28;20233;-52
2022/03/03 02:04:38;;;;;;;22.17;17.97;;;;;;;4.60;68.92;96748.16;5111074;28;20786;-52
2022/03/03 02:07:05;;;;;;;19.60;17.37;;;;;;;4.55;68.36;96742.38;5111750;28;20258;-52
2022/03/03 02:09:31;;;;;;;21.57;18.13;;;;;;;4.43;67.99;96744.03;5111488;28;20215;-52
2022/03/03 02:11:58;;;;;;;21.00;17.87;;;;;;;4.49;68.26;96742.81;5111642;28;20225;-53
2022/03/03 02:14:26;;;;;;;21.63;17.50;;;;;;;4.45;69.00;96730.84;5115199;28;20200;-52
2022/03/03 02:16:54;;;;;;;24.97;18.17;;;;;;;4.36;68.02;96737.53;5130820;28;20272;-53
2022/03/03 02:19:21;;;;;;;22.23;18.63;;;;;;;4.35;67.86;96738.50;5131570;28;20205;-51
2022/03/03 02:21:50;;;;;;;20.17;17.97;;;;;;;4.28;67.76;96731.16;5126076;28;20205;-52
2022/03/03 02:24:17;;;;;;;19.80;17.43;;;;;;;4.25;68.53;96734.78;5114305;28;20291;-53
2022/03/03 02:26:44;;;;;;;21.00;18.80;;;;;;;4.18;68.27;96732.72;5115487;28;20212;-53
2022/03/03 02:29:11;;;;;;;26.53;18.23;;;;;;;4.06;68.58;96728.28;5114972;28;20666;-53
2022/03/03 02:31:37;;;;;;;21.50;18.90;;;;;;;3.98;68.77;96726.16;5114796;28;20284;-52
2022/03/03 02:34:04;;;;;;;19.80;17.47;;;;;;;3.91;69.62;96733.59;5114481;28;20197;-50
2022/03/03 02:36:31;;;;;;;21.53;18.13;;;;;;;3.91;68.83;96717.88;5114468;28;20209;-51
2022/03/03 02:39:01;;;;;;;23.07;18.40;;;;;;;3.86;69.32;96721.75;5115162;27;20537;-53
2022/03/03 02:41:28;;;;;;;23.87;18.23;;;;;;;3.82;69.40;96715.88;5115079;28;20217;-52
2022/03/03 02:43:57;;;;;;;23.90;18.37;;;;;;;3.77;69.76;96712.72;5114091;28;20637;-52
2022/03/03 02:46:25;;;;;;;21.87;18.37;;;;;;;3.66;70.56;96715.19;5114814;28;20200;-52
2022/03/03 02:48:52;;;;;;;20.20;17.77;;;;;;;3.66;70.12;96709.13;5114751;28;20258;-53
2022/03/03 02:51:18;;;;;;;20.83;17.40;;;;;;;3.62;70.61;96708.47;5114210;28;20636;-53
2022/03/03 02:53:45;;;;;;;21.90;18.07;;;;;;;3.59;70.28;96713.06;5113593;28;20229;-51
2022/03/03 02:56:13;;;;;;;21.27;18.30;;;;;;;3.55;70.34;96711.56;5114572;28;20193;-53
2022/03/03 02:58:39;;;;;;;22.03;18.33;;;;;;;3.50;70.98;96710.13;5114748;28;20193;-51
2022/03/03 03:01:06;;;;;;;22.07;17.70;;;;;;;3.56;71.05;96715.88;5113484;28;20703;-53
2022/03/03 03:03:33;;;;;;;20.73;17.67;;;;;;;3.46;70.85;96718.25;5115138;28;20197;-52
2022/03/03 03:06:00;;;;;;;21.50;18.63;;;;;;;3.47;71.60;96714.72;5114789;28;20209;-51
2022/03/03 03:08:26;;;;;;;20.67;17.33;;;;;;;3.45;71.15;96714.78;5114378;28;20209;-53
2022/03/03 03:10:53;;;;;;;20.47;17.87;;;;;;;3.47;71.02;96709.47;5113638;28;20210;-53
2022/03/03 03:13:21;;;;;;;25.73;18.60;;;;;;;3.41;71.26;96710.69;5113902;28;20228;-51
2022/03/03 03:15:47;;;;;;;21.03;17.37;;;;;;;3.36;71.78;96707.56;5113737;28;20204;-52
2022/03/03 03:18:15;;;;;;;20.33;18.13;;;;;;;3.38;71.98;96696.97;5114078;28;20223;-53
2022/03/03 03:20:44;;;;;;;26.87;18.27;;;;;;;3.36;72.14;96709.31;5113646;28;20552;-52
2022/03/03 03:23:14;;;;;;;22.07;18.93;;;;;;;3.39;72.12;96706.50;5114461;28;20217;-51
2022/03/03 03:25:43;;;;;;;21.13;18.70;;;;;;;3.36;72.11;96701.47;5113403;28;20632;-53
2022/03/03 03:28:10;;;;;;;22.30;17.90;;;;;;;3.39;72.40;96696.06;5113066;28;20197;-51
2022/03/03 03:30:38;;;;;;;20.67;17.37;;;;;;;3.40;72.65;96692.50;5114436;28;20193;-52
2022/03/03 03:33:05;;;;;;;21.10;17.67;;;;;;;3.35;72.75;96698.03;5112806;28;20694;-53
2022/03/03 03:35:31;;;;;;;24.20;18.40;;;;;;;3.30;72.30;96697.47;5113446;28;20209;-53
2022/03/03 03:37:58;;;;;;;20.77;18.10;;;;;;;3.26;72.59;96701.22;5114012;28;20204;-53
2022/03/03 03:40:25;;;;;;;24.00;18.43;;;;;;;3.24;72.90;96691.78;5113451;28;20197;-54
2022/03/03 03:42:51;;;;;;;21.13;18.57;;;;;;;3.19;72.57;96699.09;5114307;28;20204;-52
2022/03/03 03:45:18;;;;;;;21.60;18.43;;;;;;;3.06;72.23;96690.34;5113123;28;20553;-54
2022/03/03 03:47:45;;;;;;;21.90;17.57;;;;;;;3.09;73.38;96687.53;5113417;28;20204;-53
2022/03/03 03:50:14;;;;;;;23.33;19.37;;;;;;;3.06;72.94;96695.56;5113836;28;20204;-51
2022/03/03 03:52:41;;;;;;;21.53;18.00;;;;;;;3.06;72.52;96699.03;5112911;28;21476;-53
2022/03/03 03:55:10;;;;;;;22.37;19.47;;;;;;;2.97;72.61;96700.44;5113185;28;20232;-51
2022/03/03 03:57:38;;;;;;;24.43;18.13;;;;;;;2.96;72.43;96703.97;5113346;28;20216;-53
2022/03/03 04:00:06;;;;;;;20.60;18.13;;;;;;;2.99;72.90;96698.56;5113297;28;20207;-52
2022/03/03 04:02:33;;;;;;;21.07;17.87;;;;;;;3.00;72.98;96695.03;5111586;28;20236;-51
2022/03/03 04:05:01;;;;;;;22.80;18.57;;;;;;;2.97;72.94;96699.59;5113036;28;20220;-53
2022/03/03 04:07:27;;;;;;;20.90;18.20;;;;;;;2.93;73.24;96693.72;5113419;28;20216;-53
2022/03/03 04:09:54;;;;;;;24.37;19.20;;;;;;;2.90;73.95;96698.31;5113510;28;20209;-52
2022/03/03 04:12:20;;;;;;;27.13;19.13;;;;;;;2.94;73.07;96697.19;5112401;28;20200;-53
2022/03/03 04:14:47;;;;;;;22.63;18.80;;;;;;;2.88;73.34;96694.94;5113066;28;20205;-52
2022/03/03 04:17:13;;;;;;;22.17;19.27;;;;;;;2.84;72.84;96690.84;5113013;28;20295;-52
2022/03/03 04:19:40;;;;;;;21.80;19.27;;;;;;;2.82;73.27;96690.94;5113025;28;20533;-53
2022/03/03 04:22:07;;;;;;;21.07;18.50;;;;;;;2.78;73.36;96689.44;5112744;28;20537;-51
2022/03/03 04:24:34;;;;;;;24.63;19.53;;;;;;;2.79;73.48;96690.28;5113294;28;20561;-53
2022/03/03 04:27:00;;;;;;;23.63;18.43;;;;;;;2.79;73.61;96696.38;5112902;28;20220;-53
2022/03/03 04:29:27;;;;;;;21.70;18.00;;;;;;;2.72;73.87;96689.00;5112819;28;20238;-51
2022/03/03 04:31:54;;;;;;;22.53;19.07;;;;;;;2.78;73.96;96694.66;5112736;28;20223;-52
2022/03/03 04:34:20;;;;;;;24.23;20.40;;;;;;;2.77;73.85;96690.38;5113139;28;20223;-53
2022/03/03 04:36:47;;;;;;;22.20;18.83;;;;;;;2.72;74.12;96696.81;5114164;28;20212;-52
2022/03/03 04:39:15;;;;;;;25.07;19.90;;;;;;;2.70;73.83;96696.91;5113467;28;20200;-54
2022/03/03 04:41:42;;;;;;;22.73;19.40;;;;;;;2.63;73.60;96695.59;5113923;28;20231;-54
2022/03/03 04:44:08;;;;;;;23.33;19.23;;;;;;;2.59;74.26;96688.06;5114808;28;20199;-52
2022/03/03 04:46:35;;;;;;;30.53;23.47;;;;;;;2.51;74.65;96678.91;5121727;28;21387;-53
2022/03/03 04:49:02;;;;;;;24.33;20.20;;;;;;;2.50;74.72;96687.69;5123785;28;20216;-51
2022/03/03 04:51:29;;;;;;;22.73;19.00;;;;;;;2.50;74.50;96673.81;5114940;28;20531;-53
2022/03/03 04:53:56;;;;;;;24.13;19.20;;;;;;;2.41;74.29;96674.34;5113219;28;20235;-53
2022/03/03 04:56:24;;;;;;;21.47;19.10;;;;;;;2.44;74.45;96680.22;5114214;28;20200;-53
2022/03/03 04:58:50;;;;;;;25.20;19.37;;;;;;;2.35;74.83;96680.78;5112826;28;20196;-53
2022/03/03 05:01:17;;;;;;;27.60;20.33;;;;;;;2.32;74.95;96680.13;5110581;28;20553;-53
2022/03/03 05:03:43;;;;;;;23.03;18.90;;;;;;;2.24;75.27;96677.13;5112004;28;20200;-51
2022/03/03 05:06:10;;;;;;;23.63;19.50;;;;;;;2.28;75.52;96683.84;5111638;28;20216;-52
2022/03/03 05:08:36;;;;;;;23.13;19.80;;;;;;;2.24;75.51;96671.91;5112243;28;20210;-50
2022/03/03 05:11:03;;;;;;;23.07;18.90;;;;;;;2.20;75.32;96688.66;5110851;28;20601;-53
2022/03/03 05:13:31;;;;;;;22.07;18.13;;;;;;;2.12;76.14;96686.53;5111712;28;20233;-52
2022/03/03 05:15:57;;;;;;;23.87;19.57;;;;;;;2.20;76.00;96686.06;5112231;28;20209;-53
2022/03/03 05:18:24;;;;;;;23.17;19.07;;;;;;;2.23;75.45;96685.91;5112061;28;20215;-53
2022/03/03 05:20:51;;;;;;;23.23;19.03;;;;;;;2.22;75.51;96679.00;5111244;28;20215;-53
2022/03/03 05:23:17;;;;;;;24.43;19.87;;;;;;;2.09;75.91;96678.06;5111493;28;20515;-54
2022/03/03 05:25:44;;;;;;;24.00;19.90;;;;;;;2.10;76.28;96666.66;5111724;28;20235;-53
2022/03/03 05:28:10;;;;;;;27.87;18.87;;;;;;;2.07;76.53;96674.69;5112172;28;20213;-54
2022/03/03 05:30:38;;;;;;;23.70;19.13;;;;;;;2.05;76.51;96671.34;5112109;28;20199;-50
2022/03/03 05:33:05;;;;;;;24.43;19.80;;;;;;;2.04;76.98;96670.50;5122980;28;20247;-54
2022/03/03 05:35:31;;;;;;;22.73;19.03;;;;;;;2.03;76.39;96671.41;5125599;28;20213;-54
2022/03/03 05:37:58;;;;;;;25.37;20.40;;;;;;;1.97;75.96;96670.03;5120602;28;20210;-52
2022/03/03 05:40:24;;;;;;;23.73;19.57;;;;;;;1.94;76.27;96675.44;5109649;28;20203;-53
2022/03/03 05:42:51;;;;;;;26.93;19.17;;;;;;;1.91;76.13;96679.97;5111784;28;20200;-52
2022/03/03 05:45:17;;;;;;;24.57;19.77;;;;;;;1.88;76.57;96673.16;5111802;28;20208;-53
2022/03/03 05:47:46;;;;;;;23.97;20.40;;;;;;;1.92;77.04;96669.44;5111509;28;20218;-53
2022/03/03 05:50:13;;;;;;;24.87;20.07;;;;;;;1.85;76.65;96675.94;5110916;28;20230;-52
2022/03/03 05:52:39;;;;;;;26.17;19.90;;;;;;;1.85;77.06;96670.72;5115109;28;20200;-52
2022/03/03 05:55:06;;;;;;;24.23;19.67;;;;;;;1.83;76.97;96666.53;5116134;28;20207;-51
2022/03/03 05:57:35;;;;;;;26.00;19.20;;;;;;;1.79;76.89;96660.66;5115864;28;20537;-53
2022/03/03 06:00:06;;;;;;;24.03;19.40;;;;;;;1.78;78.01;96661.59;5115598;28;20269;-53
2022/03/03 06:02:33;;;;;;;21.97;18.57;;;;;;;1.79;77.76;96671.09;5115534;28;20546;-53
2022/03/03 06:05:03;;;;;;;27.07;20.27;;;;;;;1.73;78.32;96671.47;5116123;28;20577;-53
2022/03/03 06:07:30;;;;;;;27.87;20.03;;;;;;;1.76;78.53;96678.25;5116032;28;21415;-53
2022/03/03 06:09:58;;;;;;;23.40;19.33;;;;;;;1.70;78.58;96676.00;5115031;28;20200;-53
2022/03/03 06:12:30;;;;;;;25.33;19.97;;;;;;;1.74;79.16;96678.31;5115770;28;20208;-52
2022/03/03 06:15:01;;;;;;;24.80;20.10;;;;;;;1.76;77.53;96678.25;5115961;28;20204;-54
2022/03/03 06:17:28;;;;;;;23.97;19.40;;;;;;;1.77;78.15;96683.34;5115940;28;20208;-52
2022/03/03 06:19:54;;;;;;;24.30;20.03;;;;;;;1.77;77.96;96682.56;5114785;28;20211;-53
2022/03/03 06:22:22;;;;;;;25.53;21.00;;;;;;;1.79;78.09;96681.53;5115506;28;20298;-53
2022/03/03 06:24:49;;;;;;;26.53;20.93;;;;;;;1.78;78.03;96677.22;5115364;28;20195;-53
2022/03/03 06:27:16;;;;;;;22.83;19.13;;;;;;;1.82;78.64;96678.72;5115792;28;20210;-51
2022/03/03 06:29:43;;;;;;;24.97;20.00;;;;;;;1.89;77.72;96672.22;5115249;28;20203;-51
2022/03/03 06:32:10;;;;;;;26.50;21.00;;;;;;;1.90;77.58;96668.72;5114886;28;20210;-52
2022/03/03 06:34:36;;;;;;;23.37;20.07;;;;;;;1.96;77.96;96673.56;5115401;28;20222;-52
2022/03/03 06:37:03;;;;;;;25.50;20.63;;;;;;;2.00;77.65;96677.66;5115329;28;20203;-54
2022/03/03 06:39:31;;;;;;;22.50;19.57;;;;;;;2.19;77.39;96677.44;5115648;28;20207;-54
2022/03/03 06:41:57;;;;;;;23.43;20.17;;;;;;;2.46;76.94;96686.19;5115116;28;20212;-52
2022/03/03 06:44:24;;;;;;;25.10;20.53;;;;;;;2.97;75.42;96683.94;5115113;27;20200;-53
2022/03/03 06:46:50;;;;;;;26.37;20.43;;;;;;;3.36;73.72;96693.66;5114964;28;20203;-52
2022/03/03 06:49:17;;;;;;;22.83;20.07;;;;;;;3.59;73.16;96695.59;5115212;28;20216;-53
2022/03/03 06:51:47;;;;;;;23.97;20.03;;;;;;;3.66;72.61;96694.28;5115122;28;20216;-52
2022/03/03 06:54:16;;;;;;;23.20;20.60;;;;;;;3.67;72.43;96689.88;5115018;28;20228;-54
2022/03/03 06:56:47;;;;;;;27.93;21.27;;;;;;;3.61;71.56;96685.91;5115196;28;20200;-54
2022/03/03 06:59:15;;;;;;;24.93;21.13;;;;;;;3.47;72.01;96672.88;5115401;28;20217;-52
2022/03/03 07:01:43;;;;;;;26.30;21.87;;;;;;;3.24;73.78;96670.88;5114652;28;20252;-53
2022/03/03 07:04:10;;;;;;;25.53;21.77;;;;;;;3.22;74.55;96672.78;5114447;28;20633;-52
2022/03/03 07:06:36;;;;;;;26.70;21.83;;;;;;;3.13;74.66;96668.13;5114917;28;20189;-54
2022/03/03 07:09:03;;;;;;;26.97;22.80;;;;;;;3.28;73.71;96668.00;5115360;28;20514;-54
2022/03/03 07:11:30;;;;;;;34.10;24.10;;;;;;;3.27;74.23;96670.69;5115813;28;20200;-52
2022/03/03 07:13:58;;;;;;;27.53;23.27;;;;;;;3.35;72.73;96665.81;5119254;28;20256;-53
2022/03/03 07:16:31;;;;;;;28.40;22.43;;;;;;;3.43;72.00;96661.78;5124856;28;20205;-54
2022/03/03 07:19:00;;;;;;;28.57;22.43;;;;;;;3.53;71.64;96669.03;5116686;28;20204;-52
2022/03/03 07:21:35;;;;;;;28.10;23.13;;;;;;;3.55;70.70;96670.59;5114255;28;20200;-52
2022/03/03 07:24:04;;;;;;;29.47;21.63;;;;;;;3.69;69.73;96667.91;5115286;28;20192;-51
2022/03/03 07:26:32;;;;;;;30.20;22.03;;;;;;;3.83;69.22;96669.63;5115284;28;20253;-52
2022/03/03 07:29:01;;;;;;;28.33;23.23;;;;;;;3.86;68.85;96665.03;5115333;28;20204;-52
2022/03/03 07:31:32;;;;;;;26.07;21.93;;;;;;;3.87;69.13;96655.41;5115027;28;20517;-52
2022/03/03 07:34:00;;;;;;;24.87;21.90;;;;;;;3.93;69.42;96661.06;5114935;27;20575;-54
2022/03/03 07:36:28;;;;;;;28.07;21.60;;;;;;;3.90;68.12;96663.03;5114544;28;20579;-53
2022/03/03 07:38:58;;;;;;;29.43;23.10;;;;;;;4.08;68.38;96664.44;5114484;28;20236;-53
2022/03/03 07:41:26;;;;;;;25.70;22.93;;;;;;;4.18;68.75;96651.59;5114630;28;20209;-53
2022/03/03 07:43:53;;;;;;;29.17;22.50;;;;;;;4.16;66.45;96649.06;5114038;28;20221;-54
2022/03/03 07:46:21;;;;;;;28.07;21.53;;;;;;;4.29;66.80;96642.03;5113963;28;20225;-54
2022/03/03 07:48:48;;;;;;;26.70;22.43;;;;;;;4.33;67.21;96642.66;5114196;28;20201;-53
2022/03/03 07:51:14;;;;;;;24.93;22.23;;;;;;;4.45;66.92;96649.69;5113186;28;20677;-54
2022/03/03 07:53:41;;;;;;;31.43;22.50;;;;;;;4.53;66.93;96645.59;5113476;28;20217;-53
2022/03/03 07:56:09;;;;;;;30.50;22.80;;;;;;;4.60;66.47;96651.25;5113985;28;20201;-51
2022/03/03 07:58:40;;;;;;;29.77;22.97;;;;;;;4.61;66.94;96652.91;5113131;28;20668;-52
2022/03/03 08:01:09;;;;;;;28.97;22.93;;;;;;;4.65;65.89;96649.16;5113485;28;20264;-54
2022/03/03 08:03:39;;;;;;;27.77;22.97;;;;;;;4.65;64.97;96649.16;5113311;28;20200;-52
2022/03/03 08:06:06;;;;;;;29.40;23.27;;;;;;;4.69;64.38;96649.75;5114872;28;20204;-54
2022/03/03 08:08:33;;;;;;;28.20;22.03;;;;;;;4.75;64.52;96644.09;5116686;28;20209;-51
2022/03/03 08:11:04;;;;;;;25.90;22.50;;;;;;;4.80;66.65;96640.22;5116013;28;20209;-51
2022/03/03 08:13:32;;;;;;;31.10;23.80;;;;;;;4.75;64.24;96639.69;5118538;28;20194;-52
2022/03/03 08:15:59;;;;;;;28.83;24.37;;;;;;;4.75;64.57;96639.69;5118341;28;20200;-54
2022/03/03 08:18:32;;;;;;;30.53;22.20;;;;;;;4.76;63.66;96645.78;5118329;28;20209;-53
2022/03/03 08:21:01;;;;;;;30.17;23.67;;;;;;;4.79;63.58;96646.41;5117464;28;20200;-53
2022/03/03 08:23:28;;;;;;;26.27;21.53;;;;;;;4.81;63.87;96636.66;5117414;28;20209;-52
2022/03/03 08:25:56;;;;;;;28.13;22.37;;;;;;;4.88;63.75;96630.03;5117571;28;20201;-54
2022/03/03 08:28:24;;;;;;;27.83;22.27;;;;;;;4.91;63.72;96632.44;5118188;28;20212;-53
2022/03/03 08:30:53;;;;;;;26.53;22.50;;;;;;;5.07;64.08;96633.94;5116682;28;20229;-53
2022/03/03 08:33:21;;;;;;;27.67;23.47;;;;;;;5.20;64.62;96619.03;5116810;28;20222;-53
2022/03/03 08:35:52;;;;;;;29.50;22.80;;;;;;;5.29;63.70;96619.19;5116564;28;20241;-52
2022/03/03 08:38:26;;;;;;;28.83;23.13;;;;;;;5.43;63.55;96618.19;5115275;28;20196;-53
2022/03/03 08:40:53;;;;;;;37.20;23.43;;;;;;;5.53;62.33;96613.94;5114777;28;20196;-53
2022/03/03 08:43:20;;;;;;;27.50;23.80;;;;;;;5.61;62.45;96616.84;5113962;28;20637;-54
2022/03/03 08:45:48;;;;;;;27.30;23.47;;;;;;;5.63;62.28;96617.59;5113469;28;20189;-52
2022/03/03 08:48:16;;;;;;;30.70;23.17;;;;;;;5.60;63.89;96612.53;5114065;28;20215;-53
2022/03/03 08:50:44;;;;;;;30.90;25.17;;;;;;;5.82;62.82;96617.03;5114430;28;20208;-53
2022/03/03 08:53:11;;;;;;;29.03;24.17;;;;;;;5.98;62.94;96607.94;5113950;28;20236;-52
2022/03/03 08:55:39;;;;;;;30.07;23.60;;;;;;;6.04;62.55;96609.25;5114895;28;20687;-52
2022/03/03 08:58:09;;;;;;;30.50;23.37;;;;;;;6.24;62.07;96607.72;5113401;28;20207;-54
2022/03/03 09:00:36;;;;;;;30.57;23.30;;;;;;;6.47;62.21;96604.19;5112423;28;20301;-52
2022/03/03 09:03:03;;;;;;;29.17;23.50;;;;;;;6.59;61.17;96597.94;5114272;28;20185;-51
2022/03/03 09:05:30;;;;;;;28.33;24.27;;;;;;;6.73;59.75;96595.09;5117820;28;20204;-52
2022/03/03 09:07:56;;;;;;;32.23;22.80;;;;;;;6.86;60.51;96589.72;5116683;28;20841;-52
2022/03/03 09:10:23;;;;;;;29.73;24.10;;;;;;;6.89;58.92;96592.94;5116422;28;20205;-52
2022/03/03 09:12:51;;;;;;;30.50;23.73;;;;;;;6.79;57.61;96584.09;5112665;28;20223;-53
2022/03/03 09:15:18;;;;;;;36.00;24.53;;;;;;;7.04;57.10;96582.16;5117265;28;20225;-52
2022/03/03 09:17:45;;;;;;;30.23;24.07;;;;;;;7.04;56.47;96582.16;5113873;28;20216;-51
2022/03/03 09:20:14;;;;;;;27.70;23.33;;;;;;;7.58;57.00;96577.66;5112817;28;20205;-51
2022/03/03 09:22:41;;;;;;;27.77;23.63;;;;;;;8.07;54.07;96579.69;5111937;28;20205;-53
2022/03/03 09:25:08;;;;;;;31.70;23.33;;;;;;;8.46;54.34;96564.97;5111792;28;20193;-53
2022/03/03 09:27:35;;;;;;;29.80;23.60;;;;;;;9.14;53.32;96558.09;5112107;28;20212;-53
2022/03/03 09:30:03;;;;;;;29.37;24.23;;;;;;;9.56;50.94;96550.78;5111816;28;20205;-52
2022/03/03 09:32:30;;;;;;;27.77;23.13;;;;;;;9.96;50.63;96544.34;5111593;28;20211;-51
2022/03/03 09:34:56;;;;;;;32.80;23.87;;;;;;;10.27;49.88;96542.34;5111737;28;20259;-54
2022/03/03 09:37:23;;;;;;;32.87;27.10;;;;;;;10.56;48.64;96542.25;5112292;28;20198;-53
2022/03/03 09:39:50;;;;;;;31.23;22.93;;;;;;;10.53;48.77;96536.41;5116014;28;20205;-53
2022/03/03 09:42:17;;;;;;;30.57;23.67;;;;;;;11.09;48.45;96544.22;5112230;28;20337;-54
2022/03/03 09:44:43;;;;;;;26.43;22.47;;;;;;;11.21;46.87;96543.03;5112182;28;20204;-53
2022/03/03 09:47:12;;;;;;;28.70;23.37;;;;;;;11.34;46.49;96548.78;5112200;28;20543;-52
2022/03/03 09:49:39;;;;;;;26.90;22.93;;;;;;;11.42;45.21;96546.22;5112683;28;20189;-52
2022/03/03 09:52:12;;;;;;;25.83;23.03;;;;;;;11.39;45.73;96541.22;5112343;28;20205;-54
2022/03/03 09:54:38;;;;;;;26.13;22.80;;;;;;;11.63;45.16;96530.88;5111822;28;20197;-53
2022/03/03 09:57:05;;;;;;;27.13;23.73;;;;;;;11.85;45.11;96533.06;5111406;28;20209;-54
2022/03/03 09:59:31;;;;;;;27.73;22.23;;;;;;;12.34;43.79;96522.81;5112220;28;20254;-54
2022/03/03 10:02:02;;;;;;;24.50;21.70;;;;;;;12.68;43.96;96521.00;5116902;28;20220;-53
2022/03/03 10:04:30;;;;;;;26.67;22.87;;;;;;;12.59;42.47;96518.47;5117239;28;20562;-54
2022/03/03 10:06:56;;;;;;;32.60;23.37;;;;;;;12.45;42.25;96514.59;5130564;28;20200;-52
2022/03/03 10:09:23;;;;;;;23.73;21.23;;;;;;;13.47;43.03;96520.59;5135489;28;20198;-54
2022/03/03 10:12:00;;;;;;;25.47;22.23;;;;;;;13.84;40.49;96506.88;5128941;28;20193;-54
2022/03/03 10:14:27;;;;;;;24.33;21.67;;;;;;;13.99;41.93;96512.34;5124330;28;20205;-54
2022/03/03 10:16:53;;;;;;;24.63;21.43;;;;;;;13.98;40.40;96500.03;5123881;28;20205;-53
2022/03/03 10:19:20;;;;;;;27.77;23.17;;;;;;;13.94;40.02;96504.88;5117254;28;20204;-52
2022/03/03 10:21:48;;;;;;;24.40;21.80;;;;;;;14.18;41.24;96504.84;5112509;28;20205;-52
2022/03/03 10:24:16;;;;;;;30.40;23.40;;;;;;;14.03;39.26;96508.34;5113107;28;20193;-52
2022/03/03 10:26:44;;;;;;;26.10;22.30;;;;;;;13.99;40.85;96497.22;5112472;28;20194;-52
2022/03/03 10:29:18;;;;;;;28.20;23.20;;;;;;;14.10;39.65;96499.50;5111918;28;20292;-53
2022/03/03 10:31:49;;;;;;;32.20;22.05;;;;;;;14.18;38.68;96493.34;5111862;28;20592;-54
2022/03/03 10:34:18;;;;;;;32.10;21.63;;;;;;;13.90;39.63;96503.53;5111859;28;20229;-51
2022/03/03 10:36:44;;;;;;;23.20;20.70;;;;;;;14.68;40.79;96499.25;5111905;28;20237;-53
2022/03/03 10:39:16;;;;;;;26.27;22.93;;;;;;;15.24;39.45;96505.31;5115479;28;20197;-55
2022/03/03 10:41:44;;;;;;;23.85;21.30;;;;;;;15.52;38.70;96497.72;5116899;28;20208;-52
2022/03/03 10:44:13;;;;;;;26.35;22.33;;;;;;;16.18;36.56;96500.50;5115587;28;20530;-54
2022/03/03 10:46:41;;;;;;;24.33;21.08;;;;;;;16.42;36.67;96497.56;5115007;28;20208;-53
2022/03/03 10:49:18;;;;;;;26.10;21.20;;;;;;;16.70;35.72;96495.13;5115064;28;20205;-53
2022/03/03 10:51:45;;;;;;;23.63;21.17;;;;;;;16.75;35.02;96483.91;5115741;28;21272;-55
2022/03/03 10:54:13;;;;;;;22.65;20.35;;;;;;;16.89;33.68;96483.91;5115187;28;20193;-53
2022/03/03 10:56:43;;;;;;;23.02;20.42;;;;;;;16.56;34.19;96473.75;5114885;28;20200;-54
2022/03/03 10:59:17;;;;;;;25.50;21.25;;;;;;;17.10;33.92;96468.94;5114991;28;20229;-53
2022/03/03 11:01:44;;;;;;;23.63;20.42;;;;;;;16.97;32.74;96469.56;5114937;28;20235;-52
2022/03/03 11:04:15;;;;;;;22.98;20.63;;;;;;;16.93;33.76;96471.78;5114692;28;20201;-52
2022/03/03 11:06:42;;;;;;;21.67;19.38;;;;;;;17.41;32.86;96474.84;5113646;28;20193;-54
2022/03/03 11:09:08;;;;;;;22.90;20.52;;;;;;;17.41;32.88;96469.47;5114678;28;20240;-54
2022/03/03 11:11:37;;;;;;;21.63;19.48;;;;;;;16.85;32.03;96465.75;5114672;28;20579;-54
2022/03/03 11:14:04;;;;;;;21.13;18.88;;;;;;;17.15;31.90;96458.50;5115179;27;20208;-52
2022/03/03 11:16:30;;;;;;;22.50;19.90;;;;;;;17.43;31.92;96454.06;5114915;28;20234;-53
2022/03/03 11:18:57;;;;;;;24.27;20.45;;;;;;;17.36;32.85;96450.50;5115182;28;20197;-54
2022/03/03 11:21:25;;;;;;;22.27;20.08;;;;;;;17.84;31.17;96452.47;5115023;28;20209;-53
2022/03/03 11:23:54;;;;;;;22.25;19.38;;;;;;;18.61;31.10;96449.75;5114717;28;20213;-53
2022/03/03 11:26:23;;;;;;;21.33;19.13;;;;;;;19.63;30.89;96447.88;5114279;28;20197;-54